Time;durP1;ratioP1;P1;durP2;ratioP2;P2;SDS_P1;SDS_P2;PMS_P1;PMS_P2;Temp;Humidity;BMP_temperature;BMP_pressure;BME280_temperature;BME280_humidity;BME280_pressure;Samples;Min_cycle;Max_cycle;Signal;HPM_P1;HPM_P2
2023/11/03 00:00:44;;;;;;;7.90;6.50;;;;;;;11.72;78.62;97994.75;130603;1260;106605;-78
2023/11/03 00:04:11;;;;;;;9.60;6.40;;;;;;;11.73;78.62;97999.23;130598;1268;110161;-78
2023/11/03 00:07:17;;;;;;;14.20;10.00;;;;;;;11.76;78.37;97991.77;130577;1270;107189;-79
2023/11/03 00:10:23;;;;;;;12.70;11.30;;;;;;;11.81;78.45;97988.44;130737;1259;107074;-78
2023/11/03 00:13:30;;;;;;;12.70;11.00;;;;;;;11.84;78.60;97994.48;130605;1255;107510;-77
2023/11/03 00:16:37;;;;;;;23.50;18.00;;;;;;;11.84;78.25;98000.15;130665;1260;107785;-78
2023/11/03 00:19:46;;;;;;;27.30;20.70;;;;;;;11.84;78.46;98006.88;130618;1260;107059;-78
2023/11/03 00:22:52;;;;;;;119.00;76.30;;;;;;;11.83;78.72;97998.14;130672;1261;106841;-77
2023/11/03 00:25:57;;;;;;;56.60;45.10;;;;;;;11.80;79.12;97995.31;130659;1267;107613;-78
2023/11/03 00:29:05;;;;;;;35.10;28.70;;;;;;;11.74;79.29;97993.30;130654;1260;105580;-78
2023/11/03 00:32:10;;;;;;;17.20;12.70;;;;;;;11.69;79.66;97988.70;130464;1258;107720;-77
2023/11/03 00:35:16;;;;;;;124.30;89.00;;;;;;;11.67;79.49;97983.64;130606;1260;109059;-77
2023/11/03 00:38:21;;;;;;;178.30;120.80;;;;;;;11.68;79.99;97981.52;130643;1260;107997;-78
2023/11/03 00:41:29;;;;;;;166.00;109.60;;;;;;;11.69;79.84;97973.99;130610;1260;108386;-78
2023/11/03 00:44:34;;;;;;;323.60;206.90;;;;;;;11.68;79.71;97971.36;130633;1259;108772;-79
2023/11/03 00:47:41;;;;;;;167.20;99.60;;;;;;;11.67;79.96;97957.96;130584;1260;106544;-77
2023/11/03 00:50:47;;;;;;;116.40;73.80;;;;;;;11.65;79.82;97955.92;130671;1255;106775;-77
2023/11/03 00:53:53;;;;;;;27.50;18.30;;;;;;;11.61;79.87;97958.09;130572;1270;107101;-77
2023/11/03 00:57:00;;;;;;;41.40;30.30;;;;;;;11.56;79.65;97953.27;130642;1260;106653;-78
2023/11/03 01:00:12;;;;;;;16.90;13.00;;;;;;;11.56;79.81;97950.44;130562;1263;106524;-78
2023/11/03 01:03:19;;;;;;;119.50;91.00;;;;;;;11.58;79.62;97950.67;130697;1254;107678;-79
2023/11/03 01:06:24;;;;;;;47.90;34.80;;;;;;;11.61;79.60;97945.15;130687;1269;107229;-79
2023/11/03 01:09:30;;;;;;;111.30;84.40;;;;;;;11.63;79.52;97935.77;130704;1270;107797;-79
2023/11/03 01:12:35;;;;;;;21.30;15.00;;;;;;;11.63;79.39;97933.50;130634;1255;108006;-78
2023/11/03 01:15:41;;;;;;;20.70;13.00;;;;;;;11.61;79.15;97921.36;130562;1263;107724;-78
2023/11/03 01:18:47;;;;;;;106.70;77.70;;;;;;;11.57;79.22;97915.05;130691;1260;106577;-79
2023/11/03 01:21:53;;;;;;;73.20;55.40;;;;;;;11.53;79.37;97908.80;130637;1260;107649;-78
2023/11/03 01:25:00;;;;;;;27.70;21.40;;;;;;;11.49;79.35;97913.94;130627;1262;106460;-78
2023/11/03 01:28:06;;;;;;;9.50;6.90;;;;;;;11.45;79.42;97912.20;130633;1260;108507;-78
2023/11/03 01:31:13;;;;;;;24.00;19.60;;;;;;;11.41;79.66;97910.85;130712;1258;106844;-78
2023/11/03 01:34:18;;;;;;;10.40;7.50;;;;;;;11.44;79.40;97917.69;130657;1268;107782;-77
2023/11/03 01:37:24;;;;;;;16.00;13.40;;;;;;;11.46;79.21;97912.71;130631;1260;108031;-78
2023/11/03 01:40:31;;;;;;;10.70;6.90;;;;;;;11.45;79.10;97917.89;130660;1258;107687;-78
2023/11/03 01:43:37;;;;;;;36.50;31.90;;;;;;;11.44;79.16;97917.45;130666;1259;107955;-79
2023/11/03 01:46:43;;;;;;;11.80;9.40;;;;;;;11.43;79.16;97911.38;130716;1260;107247;-78
2023/11/03 01:49:48;;;;;;;17.10;14.20;;;;;;;11.38;79.15;97904.30;130662;1259;107397;-77
2023/11/03 01:52:54;;;;;;;9.40;7.20;;;;;;;11.34;79.29;97904.32;130630;1260;107150;-78
2023/11/03 01:56:01;;;;;;;7.10;5.20;;;;;;;11.30;79.23;97904.15;130622;1270;107610;-78
2023/11/03 01:59:08;;;;;;;10.10;8.80;;;;;;;11.28;79.17;97904.58;130620;1259;107623;-78
2023/11/03 02:02:15;;;;;;;10.00;4.80;;;;;;;11.29;79.20;97910.02;130739;1258;106631;-78
2023/11/03 02:05:21;;;;;;;8.60;5.30;;;;;;;11.33;79.18;97911.85;130625;1260;107786;-78
2023/11/03 02:08:28;;;;;;;5.80;4.30;;;;;;;11.34;79.21;97909.66;130621;1259;107362;-78
2023/11/03 02:11:34;;;;;;;6.20;4.30;;;;;;;11.35;79.34;97913.73;130791;1260;106718;-78
2023/11/03 02:14:39;;;;;;;6.50;4.50;;;;;;;11.32;79.43;97916.74;130814;1260;107726;-78
2023/11/03 02:17:45;;;;;;;6.30;4.40;;;;;;;11.29;79.72;97920.09;130689;1259;106768;-78
2023/11/03 02:20:50;;;;;;;6.30;3.50;;;;;;;11.25;79.64;97918.23;130525;1260;107706;-78
2023/11/03 02:23:56;;;;;;;8.10;4.40;;;;;;;11.20;80.02;97922.56;130612;1259;106869;-78
2023/11/03 02:27:02;;;;;;;5.10;3.80;;;;;;;11.18;80.24;97919.41;130564;1261;106591;-78
2023/11/03 02:30:10;;;;;;;6.20;4.10;;;;;;;11.20;80.17;97918.49;130537;1260;107736;-77
2023/11/03 02:33:15;;;;;;;7.70;4.00;;;;;;;11.20;80.12;97920.42;130617;1260;106885;-79
2023/11/03 02:36:22;;;;;;;5.80;3.90;;;;;;;11.22;80.32;97920.42;130578;1260;106952;-77
2023/11/03 02:39:28;;;;;;;6.50;4.50;;;;;;;11.19;80.39;97916.04;130624;1260;107080;-78
2023/11/03 02:42:34;;;;;;;6.50;4.20;;;;;;;11.15;80.78;97913.69;130579;1257;106610;-78
2023/11/03 02:45:46;;;;;;;5.00;3.40;;;;;;;11.09;81.35;97913.77;130612;1260;106801;-78
2023/11/03 02:48:52;;;;;;;6.80;3.60;;;;;;;11.05;81.07;97907.79;130597;1260;108569;-78
2023/11/03 02:51:57;;;;;;;6.90;4.00;;;;;;;11.05;81.37;97904.26;130692;1260;106312;-77
2023/11/03 02:55:04;;;;;;;6.90;4.10;;;;;;;11.05;81.57;97901.59;130555;1259;106814;-78
2023/11/03 02:58:10;;;;;;;6.30;3.70;;;;;;;11.04;81.77;97891.91;130572;1261;107027;-77
2023/11/03 03:01:16;;;;;;;5.70;4.20;;;;;;;11.04;81.71;97886.73;130633;1260;108577;-77
2023/11/03 03:04:21;;;;;;;6.20;4.30;;;;;;;10.99;82.06;97880.77;130629;1260;108790;-78
2023/11/03 03:07:27;;;;;;;5.90;3.80;;;;;;;10.93;82.52;97874.08;130643;1260;108606;-78
2023/11/03 03:10:33;;;;;;;6.20;4.20;;;;;;;10.87;82.44;97872.18;130521;1260;108275;-77
2023/11/03 03:13:40;;;;;;;6.40;3.90;;;;;;;10.85;82.63;97874.45;130858;1254;106203;-78
2023/11/03 03:16:47;;;;;;;8.30;4.00;;;;;;;10.82;82.66;97869.16;130558;1257;107275;-77
2023/11/03 03:19:52;;;;;;;6.70;4.10;;;;;;;10.78;82.98;97861.69;130568;1261;106963;-78
2023/11/03 03:22:58;;;;;;;5.20;3.90;;;;;;;10.75;82.67;97851.81;130633;1254;108567;-78
2023/11/03 03:26:04;;;;;;;5.60;3.70;;;;;;;10.73;83.16;97838.55;130615;1256;107061;-77
2023/11/03 03:29:09;;;;;;;6.70;4.10;;;;;;;10.72;83.08;97832.45;130571;1257;107437;-80
2023/11/03 03:32:15;;;;;;;5.10;3.50;;;;;;;10.71;83.56;97825.23;130607;1260;107072;-78
2023/11/03 03:35:21;;;;;;;6.10;3.90;;;;;;;10.72;83.46;97824.15;130683;1256;108831;-78
2023/11/03 03:38:26;;;;;;;75.20;38.80;;;;;;;10.67;83.48;97820.16;130516;1259;106891;-77
2023/11/03 03:41:32;;;;;;;222.20;126.90;;;;;;;10.63;83.93;97817.02;130630;1257;108734;-78
2023/11/03 03:44:41;;;;;;;221.30;130.50;;;;;;;10.58;83.90;97811.92;130478;1254;109313;-78
2023/11/03 03:47:48;;;;;;;678.60;473.80;;;;;;;10.56;84.50;97807.30;130654;1260;107036;-80
2023/11/03 03:50:53;;;;;;;439.90;361.00;;;;;;;10.56;84.28;97797.20;130731;1259;107271;-79
2023/11/03 03:53:59;;;;;;;118.70;93.40;;;;;;;10.57;84.72;97791.61;130890;1259;108688;-79
2023/11/03 03:57:05;;;;;;;54.90;43.80;;;;;;;10.55;84.74;97785.39;130813;1259;108987;-78
2023/11/03 04:00:12;;;;;;;60.70;48.00;;;;;;;10.55;84.48;97791.27;130746;1259;106515;-78
2023/11/03 04:03:18;;;;;;;44.70;38.00;;;;;;;10.54;84.55;97794.38;130751;1260;107210;-78
2023/11/03 04:06:24;;;;;;;23.10;18.00;;;;;;;10.52;84.96;97796.70;130884;1268;106586;-78
2023/11/03 04:09:29;;;;;;;28.70;24.10;;;;;;;10.52;85.36;97792.64;130670;1260;107554;-78
2023/11/03 04:12:35;;;;;;;41.00;34.40;;;;;;;10.51;85.29;97781.86;130819;1260;107038;-80
2023/11/03 04:15:40;;;;;;;16.30;13.50;;;;;;;10.49;85.25;97773.78;130656;1254;108514;-79
2023/11/03 04:18:46;;;;;;;30.30;25.90;;;;;;;10.45;85.22;97763.36;130786;1260;107093;-79
2023/11/03 04:21:52;;;;;;;9.70;8.40;;;;;;;10.43;85.12;97760.58;130689;1256;108588;-78
2023/11/03 04:24:57;;;;;;;14.00;12.40;;;;;;;10.41;85.85;97763.33;130673;1259;108235;-79
2023/11/03 04:28:06;;;;;;;8.30;4.90;;;;;;;10.41;85.84;97770.99;130698;1254;106129;-78
2023/11/03 04:31:11;;;;;;;27.10;16.70;;;;;;;10.42;85.75;97767.67;130591;1259;107675;-79
2023/11/03 04:34:17;;;;;;;34.70;24.30;;;;;;;10.38;85.54;97768.02;130961;1259;108776;-80
2023/11/03 04:37:22;;;;;;;50.40;36.60;;;;;;;10.38;85.88;97759.69;130666;1254;107770;-79
2023/11/03 04:40:28;;;;;;;13.90;9.90;;;;;;;10.38;86.15;97755.55;130693;1259;106505;-81
2023/11/03 04:43:35;;;;;;;18.60;14.20;;;;;;;10.38;85.94;97756.66;130892;1259;107774;-80
2023/11/03 04:46:41;;;;;;;22.70;16.60;;;;;;;10.39;86.02;97746.35;130916;1259;107823;-80
2023/11/03 04:49:46;;;;;;;10.60;7.90;;;;;;;10.41;85.87;97741.34;130837;1254;108496;-80
2023/11/03 04:52:52;;;;;;;7.30;5.20;;;;;;;10.38;86.28;97733.04;130650;1260;107815;-77
2023/11/03 04:55:57;;;;;;;23.90;16.90;;;;;;;10.35;85.99;97723.87;130613;1254;107531;-78
2023/11/03 04:59:05;;;;;;;19.70;14.30;;;;;;;10.32;86.78;97710.02;130597;1254;107664;-77
2023/11/03 05:02:10;;;;;;;19.80;14.80;;;;;;;10.30;86.80;97707.27;130596;1260;107973;-78
2023/11/03 05:05:17;;;;;;;12.30;10.00;;;;;;;10.31;86.38;97705.69;130830;1254;106642;-75
2023/11/03 05:08:23;;;;;;;11.90;9.40;;;;;;;10.32;86.53;97702.23;130682;1260;106649;-75
2023/11/03 05:11:30;;;;;;;7.20;4.70;;;;;;;10.28;86.42;97704.52;130674;1256;107642;-74
2023/11/03 05:14:36;;;;;;;24.30;15.40;;;;;;;10.28;86.86;97689.89;130661;1259;107916;-75
2023/11/03 05:17:41;;;;;;;94.30;61.60;;;;;;;10.27;87.13;97686.45;130640;1260;106527;-77
2023/11/03 05:20:47;;;;;;;60.10;42.90;;;;;;;10.27;87.06;97681.48;130695;1259;107718;-77
2023/11/03 05:23:52;;;;;;;38.50;27.60;;;;;;;10.25;87.24;97676.86;130635;1256;106951;-77
2023/11/03 05:26:58;;;;;;;35.60;25.40;;;;;;;10.22;87.65;97678.64;130598;1260;107864;-77
2023/11/03 05:30:04;;;;;;;81.70;54.40;;;;;;;10.20;87.36;97680.25;130596;1255;108652;-78
2023/11/03 05:33:09;;;;;;;23.00;16.00;;;;;;;10.21;87.52;97670.40;130693;1254;108446;-76
2023/11/03 05:36:15;;;;;;;12.70;9.60;;;;;;;10.23;87.60;97672.70;131707;1259;108517;-76
2023/11/03 05:39:21;;;;;;;16.90;13.90;;;;;;;10.26;87.81;97669.60;130910;1260;106894;-75
2023/11/03 05:42:27;;;;;;;14.60;11.10;;;;;;;10.27;88.07;97668.08;130892;1256;108113;-75
2023/11/03 05:45:32;;;;;;;6.00;4.10;;;;;;;10.26;88.20;97672.10;130568;1257;107641;-75
2023/11/03 05:48:38;;;;;;;9.10;7.50;;;;;;;10.27;87.90;97670.30;133306;1254;108649;-78
2023/11/03 05:51:43;;;;;;;8.60;6.70;;;;;;;10.28;88.00;97663.16;133650;1254;108659;-76
2023/11/03 05:54:49;;;;;;;8.30;6.30;;;;;;;10.32;87.88;97669.35;134802;1254;108842;-76
2023/11/03 05:57:54;;;;;;;11.60;8.60;;;;;;;10.33;87.81;97667.13;133861;1256;108680;-78
2023/11/03 06:01:00;;;;;;;8.10;5.80;;;;;;;10.34;87.87;97656.09;132122;1254;108999;-77
2023/11/03 06:04:06;;;;;;;33.00;21.80;;;;;;;10.35;88.15;97648.09;131285;1258;109151;-76
2023/11/03 06:07:11;;;;;;;22.40;17.60;;;;;;;10.38;88.54;97642.73;131183;1256;108675;-76
2023/11/03 06:10:17;;;;;;;18.00;13.00;;;;;;;10.38;88.56;97642.31;131165;1257;107817;-75
2023/11/03 06:13:23;;;;;;;6.70;4.40;;;;;;;10.37;88.63;97656.30;130798;1255;106760;-77
2023/11/03 06:16:29;;;;;;;20.50;14.30;;;;;;;10.36;88.52;97658.82;130612;1254;107662;-72
2023/11/03 06:19:35;;;;;;;14.40;10.10;;;;;;;10.34;88.71;97650.92;130618;1260;107475;-74
2023/11/03 06:22:41;;;;;;;19.10;13.30;;;;;;;10.36;88.79;97649.97;130473;1259;108075;-75
2023/11/03 06:25:47;;;;;;;15.70;12.10;;;;;;;10.39;88.67;97652.20;130569;1254;106799;-75
2023/11/03 06:28:56;;;;;;;14.10;9.20;;;;;;;10.40;88.53;97648.88;130508;1258;107679;-75
2023/11/03 06:32:03;;;;;;;5.70;4.10;;;;;;;10.40;88.80;97636.81;130622;1254;108669;-76
2023/11/03 06:35:09;;;;;;;5.40;3.90;;;;;;;10.38;88.59;97639.90;130593;1260;108639;-77
2023/11/03 06:38:14;;;;;;;16.70;11.60;;;;;;;10.43;88.40;97638.40;130892;1259;106596;-76
2023/11/03 06:41:20;;;;;;;9.80;6.90;;;;;;;10.48;88.50;97623.42;130536;1270;107669;-69
2023/11/03 06:44:26;;;;;;;8.20;4.00;;;;;;;10.49;88.31;97620.34;130493;1259;108417;-73
2023/11/03 06:47:32;;;;;;;4.70;3.80;;;;;;;10.49;88.63;97606.06;130586;1260;106960;-76
2023/11/03 06:50:37;;;;;;;6.00;4.00;;;;;;;10.51;88.49;97600.93;130748;1262;107559;-76
2023/11/03 06:53:44;;;;;;;7.50;4.70;;;;;;;10.56;88.39;97593.58;130763;1254;107176;-76
2023/11/03 06:56:49;;;;;;;7.60;4.20;;;;;;;10.63;88.24;97596.36;130636;1259;106923;-75
2023/11/03 06:59:55;;;;;;;8.90;5.80;;;;;;;10.67;88.20;97605.88;130699;1259;106845;-74
2023/11/03 07:03:00;;;;;;;7.30;4.90;;;;;;;10.68;88.17;97598.89;130760;1258;106386;-74
2023/11/03 07:06:08;;;;;;;12.00;7.50;;;;;;;10.71;88.46;97605.49;130859;1260;108827;-78
2023/11/03 07:09:14;;;;;;;9.40;5.80;;;;;;;10.74;88.27;97613.27;130820;1259;107335;-76
2023/11/03 07:12:20;;;;;;;15.10;9.60;;;;;;;10.78;88.22;97607.20;130857;1259;108727;-79
2023/11/03 07:15:26;;;;;;;9.70;6.20;;;;;;;10.81;87.99;97612.80;130712;1254;107548;-76
2023/11/03 07:18:33;;;;;;;16.50;9.90;;;;;;;10.84;88.04;97606.27;130822;1255;109219;-76
2023/11/03 07:21:39;;;;;;;17.50;10.10;;;;;;;10.87;87.78;97603.80;130774;1261;107056;-77
2023/11/03 07:24:44;;;;;;;90.30;56.00;;;;;;;10.90;87.77;97608.13;130622;1256;108761;-77
2023/11/03 07:27:50;;;;;;;25.20;16.10;;;;;;;10.94;87.53;97617.56;130683;1257;107686;-76
2023/11/03 07:30:56;;;;;;;123.40;89.50;;;;;;;11.00;87.42;97619.35;130715;1256;106837;-76
2023/11/03 07:34:03;;;;;;;91.80;57.10;;;;;;;11.03;87.51;97608.44;130663;1256;106818;-76
2023/11/03 07:37:09;;;;;;;76.10;52.90;;;;;;;11.06;87.56;97613.43;130620;1261;107858;-78
2023/11/03 07:40:15;;;;;;;98.80;70.70;;;;;;;11.08;87.49;97611.14;130686;1259;106720;-78
2023/11/03 07:43:22;;;;;;;70.00;58.60;;;;;;;11.06;87.44;97604.31;130922;1260;108723;-78
2023/11/03 07:46:30;;;;;;;47.40;42.40;;;;;;;11.06;87.41;97614.40;130581;1262;107095;-76
2023/11/03 07:49:36;;;;;;;13.90;11.30;;;;;;;11.09;87.16;97615.48;130716;1259;107827;-79
2023/11/03 07:52:43;;;;;;;11.90;10.50;;;;;;;11.11;87.07;97610.12;130997;1254;106570;-78
2023/11/03 07:55:48;;;;;;;10.50;6.50;;;;;;;11.14;86.94;97610.42;130572;1260;108093;-75
2023/11/03 07:58:55;;;;;;;8.00;5.90;;;;;;;11.13;86.98;97606.29;130627;1260;106794;-74
2023/11/03 08:02:00;;;;;;;18.40;16.50;;;;;;;11.13;86.49;97592.62;130613;1260;107285;-74
2023/11/03 08:05:07;;;;;;;18.40;16.50;;;;;;;11.13;86.90;97593.89;130650;1258;107032;-72
2023/11/03 08:08:14;;;;;;;16.90;14.40;;;;;;;11.17;86.78;97597.86;130605;1256;106667;-72
2023/11/03 08:11:21;;;;;;;22.90;20.40;;;;;;;11.22;87.09;97593.63;130790;1258;107593;-75
2023/11/03 08:14:28;;;;;;;11.10;8.90;;;;;;;11.23;87.13;97583.46;130641;1256;107743;-73
2023/11/03 08:17:34;;;;;;;101.40;82.60;;;;;;;11.24;87.38;97575.33;130535;1259;107121;-73
2023/11/03 08:20:39;;;;;;;24.30;17.80;;;;;;;11.27;87.28;97590.29;130791;1259;106701;-73
2023/11/03 08:23:45;;;;;;;88.10;70.10;;;;;;;11.32;87.53;97589.70;130561;1256;107172;-74
2023/11/03 08:26:51;;;;;;;47.90;42.70;;;;;;;11.36;87.49;97592.64;130542;1259;107845;-74
2023/11/03 08:29:57;;;;;;;58.10;46.70;;;;;;;11.43;87.50;97597.95;130592;1256;108838;-73
2023/11/03 08:33:03;;;;;;;30.60;24.10;;;;;;;11.44;87.05;97605.52;130533;1259;107787;-73
2023/11/03 08:36:09;;;;;;;109.50;89.00;;;;;;;11.44;87.24;97612.58;130560;1259;108936;-74
2023/11/03 08:39:15;;;;;;;22.70;18.00;;;;;;;11.43;87.33;97621.98;130517;1256;108570;-73
2023/11/03 08:42:21;;;;;;;83.50;67.80;;;;;;;11.45;87.21;97625.25;130543;1256;106567;-74
2023/11/03 08:45:27;;;;;;;28.80;23.00;;;;;;;11.47;87.35;97633.63;130668;1254;107299;-74
2023/11/03 08:48:33;;;;;;;76.80;50.10;;;;;;;11.48;87.21;97629.71;130550;1260;106612;-75
2023/11/03 08:51:38;;;;;;;58.00;47.50;;;;;;;11.50;87.12;97618.77;130510;1259;107933;-74
2023/11/03 08:54:44;;;;;;;35.10;27.50;;;;;;;11.52;86.94;97597.42;130557;1258;106636;-72
2023/11/03 08:57:49;;;;;;;21.40;19.00;;;;;;;11.55;86.76;97603.10;130800;1255;106932;-73
2023/11/03 09:00:56;;;;;;;30.40;27.10;;;;;;;11.57;86.78;97609.48;130502;1259;106873;-73
2023/11/03 09:04:02;;;;;;;68.10;58.70;;;;;;;11.62;86.78;97613.83;130562;1259;106980;-73
2023/11/03 09:07:09;;;;;;;76.10;61.20;;;;;;;11.69;86.71;97602.76;130431;1259;106570;-73
2023/11/03 09:10:15;;;;;;;30.30;24.70;;;;;;;11.79;86.49;97594.29;130534;1261;106600;-74
2023/11/03 09:13:21;;;;;;;26.10;23.30;;;;;;;11.85;86.37;97597.23;130643;1259;107479;-73
2023/11/03 09:16:31;;;;;;;12.40;11.00;;;;;;;11.88;85.99;97581.88;130542;1259;107544;-74
2023/11/03 09:19:38;;;;;;;12.90;11.30;;;;;;;11.92;86.16;97574.38;130501;1254;107703;-74
2023/11/03 09:22:46;;;;;;;15.60;12.30;;;;;;;11.93;85.95;97571.35;130579;1259;107693;-73
2023/11/03 09:25:54;;;;;;;9.70;7.60;;;;;;;11.97;85.86;97563.96;130602;1256;108571;-72
2023/11/03 09:29:04;;;;;;;22.00;19.60;;;;;;;12.04;85.82;97555.77;130930;1256;108844;-72
2023/11/03 09:32:15;;;;;;;39.10;34.90;;;;;;;12.11;85.63;97552.77;130602;1259;108807;-71
2023/11/03 09:35:25;;;;;;;17.60;14.70;;;;;;;12.13;85.50;97552.09;130568;1259;106852;-72
2023/11/03 09:38:32;;;;;;;119.30;102.20;;;;;;;12.17;85.40;97543.15;130718;1261;108543;-73
2023/11/03 09:41:46;;;;;;;75.20;61.80;;;;;;;12.25;85.49;97545.98;130861;1259;107870;-72
2023/11/03 09:44:57;;;;;;;40.80;35.10;;;;;;;12.33;85.18;97531.91;130735;1259;107970;-73
2023/11/03 09:48:08;;;;;;;13.60;11.80;;;;;;;12.39;85.19;97523.41;130595;1254;107201;-72
2023/11/03 09:51:14;;;;;;;31.30;28.00;;;;;;;12.48;84.99;97519.60;130517;1256;108677;-77
2023/11/03 09:54:22;;;;;;;10.40;7.80;;;;;;;12.60;84.79;97514.79;130547;1259;106732;-74
2023/11/03 09:57:31;;;;;;;29.30;26.10;;;;;;;12.74;84.61;97505.99;130540;1259;108056;-72
2023/11/03 10:00:40;;;;;;;23.00;20.30;;;;;;;12.85;84.29;97513.88;130409;1260;106648;-72
2023/11/03 10:03:47;;;;;;;136.80;100.80;;;;;;;12.93;84.50;97506.45;130541;1260;107622;-68
2023/11/03 10:07:05;;;;;;;21.30;16.30;;;;;;;13.02;84.25;97499.02;130558;1255;107399;-72
2023/11/03 10:10:15;;;;;;;61.60;54.90;;;;;;;13.08;84.05;97494.65;130554;1256;107484;-75
2023/11/03 10:13:25;;;;;;;18.20;14.70;;;;;;;13.11;84.26;97491.73;130637;1259;106905;-72
2023/11/03 10:16:36;;;;;;;83.50;53.40;;;;;;;13.11;84.09;97492.99;130509;1259;107679;-73
2023/11/03 10:19:48;;;;;;;101.60;57.20;;;;;;;13.11;84.21;97486.95;130485;1254;108051;-72
2023/11/03 10:22:56;;;;;;;139.40;72.80;;;;;;;13.13;83.82;97476.20;130584;1259;107108;-72
2023/11/03 10:26:06;;;;;;;91.80;48.00;;;;;;;13.14;83.68;97470.96;130626;1260;108048;-75
2023/11/03 10:29:15;;;;;;;46.80;29.20;;;;;;;13.11;83.67;97457.50;130617;1258;106976;-74
2023/11/03 10:32:22;;;;;;;31.90;21.10;;;;;;;13.08;83.55;97453.64;130556;1259;108912;-73
2023/11/03 10:35:29;;;;;;;22.60;17.80;;;;;;;13.05;83.24;97452.99;130496;1260;108721;-73
2023/11/03 10:38:40;;;;;;;35.30;25.40;;;;;;;12.98;83.23;97446.74;130775;1256;107095;-76
2023/11/03 10:41:52;;;;;;;79.30;60.20;;;;;;;12.89;83.15;97441.74;130599;1259;106783;-76
2023/11/03 10:45:03;;;;;;;36.80;20.70;;;;;;;12.81;83.05;97436.46;130392;1260;195323;-75
2023/11/03 10:48:16;;;;;;;174.80;121.10;;;;;;;12.80;83.12;97434.23;130597;1260;108349;-76
2023/11/03 10:51:28;;;;;;;52.90;35.30;;;;;;;12.81;82.97;97430.79;130500;1257;106921;-76
2023/11/03 10:54:41;;;;;;;61.60;40.90;;;;;;;12.84;82.91;97429.49;130644;1262;106640;-77
2023/11/03 10:57:53;;;;;;;52.40;36.00;;;;;;;12.85;82.92;97437.41;130524;1259;106635;-77
2023/11/03 11:01:07;;;;;;;38.80;32.20;;;;;;;12.85;81.94;97440.28;130621;1255;107813;-75
2023/11/03 11:04:22;;;;;;;31.20;27.30;;;;;;;12.84;82.29;97438.72;130578;1256;107802;-75
2023/11/03 11:07:34;;;;;;;12.40;8.70;;;;;;;12.83;82.29;97442.71;130586;1258;106995;-76
2023/11/03 11:10:42;;;;;;;52.80;35.40;;;;;;;12.83;81.85;97441.16;130436;1257;108433;-75
2023/11/03 11:13:50;;;;;;;49.70;31.80;;;;;;;12.81;81.85;97436.71;130681;1262;107826;-77
2023/11/03 11:17:03;;;;;;;180.10;117.90;;;;;;;12.82;82.20;97429.20;130534;1259;107700;-75
2023/11/03 11:20:17;;;;;;;101.00;67.50;;;;;;;12.86;81.79;97427.03;130675;1256;106548;-75
2023/11/03 11:23:32;;;;;;;53.50;36.70;;;;;;;12.91;82.03;97427.98;130634;1259;107369;-75
2023/11/03 11:26:43;;;;;;;23.10;14.70;;;;;;;12.98;81.57;97421.81;130608;1259;107686;-74
2023/11/03 11:30:04;;;;;;;33.50;24.90;;;;;;;13.00;81.05;97410.23;130866;1257;108627;-75
2023/11/03 11:33:11;;;;;;;15.50;10.90;;;;;;;13.02;81.12;97408.70;130767;1259;107503;-75
2023/11/03 11:36:28;;;;;;;12.50;8.80;;;;;;;13.03;80.68;97404.11;130604;1260;107681;-74
2023/11/03 11:39:35;;;;;;;13.70;9.00;;;;;;;13.03;80.79;97399.95;130821;1256;106793;-74
2023/11/03 11:42:43;;;;;;;17.90;16.00;;;;;;;13.01;80.45;97399.21;130574;1257;107697;-75
2023/11/03 11:45:53;;;;;;;8.80;7.40;;;;;;;12.98;80.34;97401.36;130566;1257;107847;-74
2023/11/03 11:49:03;;;;;;;28.10;23.70;;;;;;;12.94;80.71;97383.89;130603;1256;106580;-74
2023/11/03 11:52:10;;;;;;;15.50;13.40;;;;;;;12.94;80.55;97373.77;130533;1259;107020;-76
2023/11/03 11:55:20;;;;;;;20.80;16.50;;;;;;;13.00;80.55;97367.55;130566;1258;107143;-74
2023/11/03 11:58:36;;;;;;;9.80;7.20;;;;;;;13.08;80.60;97369.05;130554;1257;107961;-74
2023/11/03 12:01:47;;;;;;;9.60;7.50;;;;;;;13.16;80.78;97368.66;130568;1259;106986;-74
2023/11/03 12:04:55;;;;;;;11.10;7.80;;;;;;;13.19;80.62;97364.47;130656;1259;107923;-74
2023/11/03 12:08:09;;;;;;;21.60;19.00;;;;;;;13.23;80.26;97359.73;130561;1257;107699;-74
2023/11/03 12:11:23;;;;;;;19.20;14.30;;;;;;;13.24;80.15;97358.83;130594;1260;107691;-74
2023/11/03 12:14:34;;;;;;;11.70;9.10;;;;;;;13.24;80.14;97365.38;130598;1259;107622;-74
2023/11/03 12:17:42;;;;;;;27.40;15.20;;;;;;;13.21;79.88;97359.80;130600;1256;109499;-75
2023/11/03 12:21:02;;;;;;;17.50;10.30;;;;;;;13.19;80.00;97349.31;130570;1256;106819;-75
2023/11/03 12:24:12;;;;;;;21.50;10.00;;;;;;;13.14;79.84;97345.76;131106;1259;107716;-75
2023/11/03 12:27:23;;;;;;;23.50;12.50;;;;;;;13.11;79.67;97340.63;130558;1262;107050;-78
2023/11/03 12:30:29;;;;;;;17.20;12.60;;;;;;;13.13;79.90;97335.55;130751;1259;107757;-75
2023/11/03 12:33:43;;;;;;;10.30;6.30;;;;;;;13.17;79.71;97329.63;130579;1256;109458;-76
2023/11/03 12:36:57;;;;;;;21.50;14.20;;;;;;;13.22;79.73;97337.75;130585;1259;107176;-75
2023/11/03 12:40:04;;;;;;;38.20;31.00;;;;;;;13.26;79.68;97328.99;130498;1259;106666;-75
2023/11/03 12:43:13;;;;;;;17.10;13.50;;;;;;;13.28;79.13;97322.06;130584;1259;107730;-77
2023/11/03 12:46:25;;;;;;;12.80;10.80;;;;;;;13.28;79.34;97327.79;130506;1256;107176;-76
2023/11/03 12:49:32;;;;;;;14.70;12.70;;;;;;;13.26;79.11;97322.94;130450;1259;106448;-76
2023/11/03 12:52:40;;;;;;;20.90;13.40;;;;;;;13.23;79.15;97317.79;130525;1259;106552;-78
2023/11/03 12:55:59;;;;;;;40.70;34.20;;;;;;;13.18;79.32;97317.23;130797;1259;107215;-77
2023/11/03 12:59:06;;;;;;;28.20;25.10;;;;;;;13.16;79.38;97318.15;130589;1259;107715;-76
2023/11/03 13:02:12;;;;;;;16.60;14.80;;;;;;;13.15;79.52;97313.07;130546;1262;106614;-76
2023/11/03 13:05:19;;;;;;;16.10;13.10;;;;;;;13.15;79.41;97308.77;130761;1259;108350;-76
2023/11/03 13:08:24;;;;;;;12.50;11.20;;;;;;;13.17;79.23;97309.27;130685;1259;107661;-78
2023/11/03 13:11:30;;;;;;;12.40;8.30;;;;;;;13.19;79.17;97309.95;130795;1257;107843;-77
2023/11/03 13:14:41;;;;;;;22.40;18.30;;;;;;;13.22;78.88;97314.55;130704;1261;107919;-79
2023/11/03 13:17:48;;;;;;;19.20;14.30;;;;;;;13.22;79.08;97319.77;130501;1262;107471;-78
2023/11/03 13:20:59;;;;;;;17.30;13.90;;;;;;;13.23;79.45;97321.49;130689;1259;107386;-77
2023/11/03 13:24:12;;;;;;;17.50;15.70;;;;;;;13.21;79.83;97325.94;130510;1259;107725;-79
2023/11/03 13:27:26;;;;;;;10.50;8.00;;;;;;;13.16;80.28;97336.97;130535;1257;106543;-76
2023/11/03 13:30:44;;;;;;;12.00;8.80;;;;;;;13.08;80.64;97340.73;130377;1262;106690;-76
2023/11/03 13:33:53;;;;;;;14.60;7.80;;;;;;;12.98;80.71;97344.58;130593;1256;106858;-76
2023/11/03 13:37:05;;;;;;;15.80;8.70;;;;;;;12.94;80.92;97345.30;130510;1257;107490;-75
2023/11/03 13:40:13;;;;;;;14.90;9.50;;;;;;;12.92;81.18;97344.25;130591;1256;106837;-75
2023/11/03 13:43:20;;;;;;;16.30;9.80;;;;;;;12.91;81.50;97343.09;130899;1254;108372;-75
2023/11/03 13:46:32;;;;;;;15.90;11.00;;;;;;;12.87;81.69;97337.62;130573;1255;106571;-75
2023/11/03 13:49:50;;;;;;;15.30;11.60;;;;;;;12.82;81.95;97335.97;131163;1257;106948;-78
2023/11/03 13:53:11;;;;;;;102.40;69.20;;;;;;;12.71;82.44;97330.10;130481;1256;108479;-78
2023/11/03 13:56:21;;;;;;;94.70;66.20;;;;;;;12.63;82.69;97327.10;130514;1259;108683;-78
2023/11/03 13:59:35;;;;;;;83.20;45.70;;;;;;;12.58;82.96;97320.61;130701;1256;107552;-76
2023/11/03 14:02:42;;;;;;;223.30;144.60;;;;;;;12.57;83.15;97310.52;130738;1256;106912;-77
2023/11/03 14:05:48;;;;;;;241.60;156.20;;;;;;;12.55;83.24;97297.55;130580;1259;108642;-75